sensor_id;sensor_type;location;lat;lon;timestamp;P1;durP1;ratioP1;P2;durP2;ratioP2
31306;SDS011;17935;51.120;13.132;2023-07-31T00:00:37;6.63;;;3.17;;
31306;SDS011;17935;51.120;13.132;2023-07-31T00:03:03;6.70;;;2.85;;
31306;SDS011;17935;51.120;13.132;2023-07-31T00:05:29;14.93;;;3.40;;
31306;SDS011;17935;51.120;13.132;2023-07-31T00:07:55;9.27;;;2.53;;
31306;SDS011;17935;51.120;13.132;2023-07-31T00:10:21;9.57;;;2.85;;
31306;SDS011;17935;51.120;13.132;2023-07-31T00:12:47;6.90;;;3.22;;
31306;SDS011;17935;51.120;13.132;2023-07-31T00:15:13;6.57;;;2.92;;
31306;SDS011;17935;51.120;13.132;2023-07-31T00:17:40;14.77;;;3.00;;
31306;SDS011;17935;51.120;13.132;2023-07-31T00:20:06;9.18;;;3.03;;
31306;SDS011;17935;51.120;13.132;2023-07-31T00:22:32;6.88;;;2.80;;
31306;SDS011;17935;51.120;13.132;2023-07-31T00:24:58;9.80;;;2.47;;
31306;SDS011;17935;51.120;13.132;2023-07-31T00:27:24;12.77;;;3.47;;
31306;SDS011;17935;51.120;13.132;2023-07-31T00:29:50;10.77;;;3.22;;
31306;SDS011;17935;51.120;13.132;2023-07-31T00:32:16;7.65;;;2.78;;
31306;SDS011;17935;51.120;13.132;2023-07-31T00:34:42;4.47;;;2.60;;
31306;SDS011;17935;51.120;13.132;2023-07-31T00:37:08;13.32;;;3.15;;
31306;SDS011;17935;51.120;13.132;2023-07-31T00:39:34;9.68;;;4.05;;
31306;SDS011;17935;51.120;13.132;2023-07-31T00:42:01;11.30;;;3.22;;
31306;SDS011;17935;51.120;13.132;2023-07-31T00:44:27;9.90;;;3.10;;
31306;SDS011;17935;51.120;13.132;2023-07-31T00:46:52;9.20;;;2.95;;
31306;SDS011;17935;51.120;13.132;2023-07-31T00:49:20;7.43;;;3.38;;
31306;SDS011;17935;51.120;13.132;2023-07-31T00:51:46;9.85;;;3.50;;
31306;SDS011;17935;51.120;13.132;2023-07-31T00:54:12;8.80;;;2.67;;
31306;SDS011;17935;51.120;13.132;2023-07-31T00:56:38;13.18;;;3.05;;
31306;SDS011;17935;51.120;13.132;2023-07-31T00:59:04;10.35;;;2.38;;
31306;SDS011;17935;51.120;13.132;2023-07-31T01:01:30;7.75;;;2.47;;
31306;SDS011;17935;51.120;13.132;2023-07-31T01:03:56;5.43;;;2.47;;
31306;SDS011;17935;51.120;13.132;2023-07-31T01:11:21;8.43;;;3.00;;
31306;SDS011;17935;51.120;13.132;2023-07-31T01:13:50;13.65;;;2.88;;
31306;SDS011;17935;51.120;13.132;2023-07-31T01:16:16;5.63;;;2.95;;
31306;SDS011;17935;51.120;13.132;2023-07-31T01:18:42;12.80;;;2.75;;
31306;SDS011;17935;51.120;13.132;2023-07-31T01:26:38;9.30;;;2.63;;
31306;SDS011;17935;51.120;13.132;2023-07-31T01:29:29;7.90;;;2.20;;
31306;SDS011;17935;51.120;13.132;2023-07-31T01:31:51;6.97;;;2.15;;
31306;SDS011;17935;51.120;13.132;2023-07-31T01:34:18;8.05;;;2.92;;
31306;SDS011;17935;51.120;13.132;2023-07-31T01:36:45;8.63;;;2.63;;
31306;SDS011;17935;51.120;13.132;2023-07-31T01:39:11;10.35;;;3.08;;
31306;SDS011;17935;51.120;13.132;2023-07-31T01:41:36;11.25;;;3.45;;
31306;SDS011;17935;51.120;13.132;2023-07-31T01:44:02;9.88;;;2.60;;
31306;SDS011;17935;51.120;13.132;2023-07-31T01:46:28;5.70;;;2.45;;
31306;SDS011;17935;51.120;13.132;2023-07-31T01:48:54;8.20;;;2.33;;
31306;SDS011;17935;51.120;13.132;2023-07-31T01:51:20;7.13;;;2.50;;
31306;SDS011;17935;51.120;13.132;2023-07-31T01:53:46;8.02;;;2.67;;
31306;SDS011;17935;51.120;13.132;2023-07-31T01:56:12;6.30;;;2.65;;
31306;SDS011;17935;51.120;13.132;2023-07-31T01:58:38;7.82;;;3.28;;
31306;SDS011;17935;51.120;13.132;2023-07-31T02:01:04;4.15;;;2.45;;
31306;SDS011;17935;51.120;13.132;2023-07-31T02:03:30;10.70;;;2.90;;
31306;SDS011;17935;51.120;13.132;2023-07-31T02:05:56;4.72;;;2.13;;
31306;SDS011;17935;51.120;13.132;2023-07-31T02:08:22;9.18;;;2.17;;
31306;SDS011;17935;51.120;13.132;2023-07-31T02:10:48;5.47;;;2.38;;
31306;SDS011;17935;51.120;13.132;2023-07-31T02:13:14;5.53;;;2.17;;
31306;SDS011;17935;51.120;13.132;2023-07-31T02:15:40;5.75;;;2.53;;
31306;SDS011;17935;51.120;13.132;2023-07-31T02:18:06;12.07;;;2.90;;
31306;SDS011;17935;51.120;13.132;2023-07-31T02:20:34;9.18;;;2.90;;
31306;SDS011;17935;51.120;13.132;2023-07-31T02:23:00;13.70;;;2.63;;
31306;SDS011;17935;51.120;13.132;2023-07-31T02:25:27;9.65;;;2.78;;
31306;SDS011;17935;51.120;13.132;2023-07-31T02:27:53;8.52;;;2.38;;
31306;SDS011;17935;51.120;13.132;2023-07-31T02:30:18;9.77;;;3.80;;
31306;SDS011;17935;51.120;13.132;2023-07-31T02:32:44;8.00;;;2.58;;
31306;SDS011;17935;51.120;13.132;2023-07-31T02:35:10;9.88;;;2.55;;
31306;SDS011;17935;51.120;13.132;2023-07-31T02:37:40;11.45;;;2.95;;
31306;SDS011;17935;51.120;13.132;2023-07-31T02:40:06;7.22;;;2.47;;
31306;SDS011;17935;51.120;13.132;2023-07-31T02:42:32;9.45;;;2.55;;
31306;SDS011;17935;51.120;13.132;2023-07-31T02:44:58;8.90;;;2.58;;
31306;SDS011;17935;51.120;13.132;2023-07-31T02:47:24;8.95;;;3.00;;
31306;SDS011;17935;51.120;13.132;2023-07-31T02:49:50;7.65;;;2.92;;
31306;SDS011;17935;51.120;13.132;2023-07-31T02:52:16;7.18;;;3.08;;
31306;SDS011;17935;51.120;13.132;2023-07-31T02:54:42;8.70;;;2.60;;
31306;SDS011;17935;51.120;13.132;2023-07-31T02:57:08;7.30;;;3.50;;
31306;SDS011;17935;51.120;13.132;2023-07-31T02:59:33;7.68;;;3.35;;
31306;SDS011;17935;51.120;13.132;2023-07-31T03:01:59;12.57;;;5.25;;
31306;SDS011;17935;51.120;13.132;2023-07-31T03:04:25;6.45;;;2.83;;
31306;SDS011;17935;51.120;13.132;2023-07-31T03:06:51;7.40;;;3.55;;
31306;SDS011;17935;51.120;13.132;2023-07-31T03:09:17;7.13;;;2.78;;
31306;SDS011;17935;51.120;13.132;2023-07-31T03:11:43;4.18;;;2.85;;
31306;SDS011;17935;51.120;13.132;2023-07-31T03:14:09;9.77;;;3.05;;
31306;SDS011;17935;51.120;13.132;2023-07-31T03:16:35;8.45;;;3.08;;
31306;SDS011;17935;51.120;13.132;2023-07-31T03:19:01;5.70;;;3.03;;
31306;SDS011;17935;51.120;13.132;2023-07-31T03:21:27;11.23;;;3.22;;
31306;SDS011;17935;51.120;13.132;2023-07-31T03:23:53;16.40;;;3.40;;
31306;SDS011;17935;51.120;13.132;2023-07-31T03:26:19;11.02;;;3.03;;
31306;SDS011;17935;51.120;13.132;2023-07-31T03:28:45;10.55;;;3.15;;
31306;SDS011;17935;51.120;13.132;2023-07-31T03:31:11;8.75;;;4.05;;
31306;SDS011;17935;51.120;13.132;2023-07-31T03:33:37;5.90;;;3.50;;
31306;SDS011;17935;51.120;13.132;2023-07-31T03:36:03;7.10;;;3.25;;
31306;SDS011;17935;51.120;13.132;2023-07-31T03:38:31;13.75;;;3.67;;
31306;SDS011;17935;51.120;13.132;2023-07-31T03:40:57;12.05;;;4.28;;
31306;SDS011;17935;51.120;13.132;2023-07-31T03:43:23;7.28;;;4.20;;
31306;SDS011;17935;51.120;13.132;2023-07-31T03:45:50;10.57;;;3.67;;
31306;SDS011;17935;51.120;13.132;2023-07-31T03:48:16;11.68;;;3.95;;
31306;SDS011;17935;51.120;13.132;2023-07-31T03:50:42;14.45;;;4.07;;
31306;SDS011;17935;51.120;13.132;2023-07-31T03:53:08;9.75;;;4.65;;
31306;SDS011;17935;51.120;13.132;2023-07-31T03:55:34;10.50;;;4.00;;
31306;SDS011;17935;51.120;13.132;2023-07-31T03:58:00;4.90;;;4.03;;
31306;SDS011;17935;51.120;13.132;2023-07-31T04:00:26;12.15;;;4.78;;
31306;SDS011;17935;51.120;13.132;2023-07-31T04:02:52;10.88;;;4.55;;
31306;SDS011;17935;51.120;13.132;2023-07-31T04:05:18;8.70;;;3.97;;
31306;SDS011;17935;51.120;13.132;2023-07-31T04:07:44;11.88;;;4.40;;
31306;SDS011;17935;51.120;13.132;2023-07-31T04:10:10;9.38;;;4.45;;
31306;SDS011;17935;51.120;13.132;2023-07-31T04:12:36;13.48;;;4.07;;
31306;SDS011;17935;51.120;13.132;2023-07-31T04:15:02;7.80;;;4.18;;
31306;SDS011;17935;51.120;13.132;2023-07-31T04:17:28;15.30;;;4.30;;
31306;SDS011;17935;51.120;13.132;2023-07-31T04:19:54;8.32;;;3.72;;
31306;SDS011;17935;51.120;13.132;2023-07-31T04:22:20;9.95;;;4.07;;
31306;SDS011;17935;51.120;13.132;2023-07-31T04:24:46;8.15;;;4.30;;
31306;SDS011;17935;51.120;13.132;2023-07-31T04:27:12;10.85;;;3.95;;
31306;SDS011;17935;51.120;13.132;2023-07-31T04:29:38;17.25;;;4.07;;
31306;SDS011;17935;51.120;13.132;2023-07-31T04:32:07;7.95;;;3.72;;
31306;SDS011;17935;51.120;13.132;2023-07-31T04:34:33;13.82;;;3.65;;
31306;SDS011;17935;51.120;13.132;2023-07-31T04:36:59;11.75;;;4.25;;
31306;SDS011;17935;51.120;13.132;2023-07-31T04:39:25;7.95;;;4.10;;
31306;SDS011;17935;51.120;13.132;2023-07-31T04:41:51;10.40;;;3.50;;
31306;SDS011;17935;51.120;13.132;2023-07-31T04:44:17;9.25;;;3.47;;
31306;SDS011;17935;51.120;13.132;2023-07-31T04:46:43;8.93;;;3.72;;
31306;SDS011;17935;51.120;13.132;2023-07-31T04:49:09;8.60;;;3.85;;
31306;SDS011;17935;51.120;13.132;2023-07-31T04:51:35;11.30;;;4.22;;
31306;SDS011;17935;51.120;13.132;2023-07-31T04:54:01;16.23;;;5.20;;
31306;SDS011;17935;51.120;13.132;2023-07-31T04:56:27;10.38;;;3.38;;
31306;SDS011;17935;51.120;13.132;2023-07-31T04:58:53;8.30;;;4.45;;
31306;SDS011;17935;51.120;13.132;2023-07-31T05:01:19;11.75;;;3.90;;
31306;SDS011;17935;51.120;13.132;2023-07-31T05:03:45;13.68;;;3.72;;
31306;SDS011;17935;51.120;13.132;2023-07-31T05:06:11;9.82;;;3.78;;
31306;SDS011;17935;51.120;13.132;2023-07-31T05:08:40;16.08;;;3.95;;
31306;SDS011;17935;51.120;13.132;2023-07-31T05:11:06;8.15;;;3.60;;
31306;SDS011;17935;51.120;13.132;2023-07-31T05:13:32;12.95;;;4.30;;
31306;SDS011;17935;51.120;13.132;2023-07-31T05:15:58;10.25;;;3.45;;
31306;SDS011;17935;51.120;13.132;2023-07-31T05:18:24;9.70;;;3.25;;
31306;SDS011;17935;51.120;13.132;2023-07-31T05:20:50;7.75;;;3.25;;
31306;SDS011;17935;51.120;13.132;2023-07-31T05:23:16;10.18;;;3.45;;
31306;SDS011;17935;51.120;13.132;2023-07-31T05:25:42;10.23;;;3.33;;
31306;SDS011;17935;51.120;13.132;2023-07-31T05:28:08;6.80;;;2.97;;
31306;SDS011;17935;51.120;13.132;2023-07-31T05:30:34;9.73;;;2.92;;
31306;SDS011;17935;51.120;13.132;2023-07-31T05:33:00;6.90;;;2.72;;
31306;SDS011;17935;51.120;13.132;2023-07-31T05:35:26;10.18;;;3.08;;
31306;SDS011;17935;51.120;13.132;2023-07-31T05:37:52;9.32;;;3.00;;
31306;SDS011;17935;51.120;13.132;2023-07-31T05:40:18;8.60;;;3.38;;
31306;SDS011;17935;51.120;13.132;2023-07-31T05:42:44;11.30;;;3.78;;
31306;SDS011;17935;51.120;13.132;2023-07-31T05:45:10;13.38;;;3.65;;
31306;SDS011;17935;51.120;13.132;2023-07-31T05:47:36;10.35;;;3.10;;
31306;SDS011;17935;51.120;13.132;2023-07-31T05:50:02;9.75;;;3.33;;
31306;SDS011;17935;51.120;13.132;2023-07-31T05:52:28;7.65;;;2.90;;
31306;SDS011;17935;51.120;13.132;2023-07-31T05:54:54;8.65;;;3.08;;
31306;SDS011;17935;51.120;13.132;2023-07-31T05:57:20;7.82;;;3.28;;
31306;SDS011;17935;51.120;13.132;2023-07-31T05:59:46;7.43;;;3.28;;
31306;SDS011;17935;51.120;13.132;2023-07-31T06:02:12;9.20;;;3.03;;
31306;SDS011;17935;51.120;13.132;2023-07-31T06:04:38;8.50;;;3.03;;
31306;SDS011;17935;51.120;13.132;2023-07-31T06:07:04;13.85;;;3.67;;
31306;SDS011;17935;51.120;13.132;2023-07-31T06:09:30;10.05;;;3.45;;
31306;SDS011;17935;51.120;13.132;2023-07-31T06:11:57;7.88;;;2.83;;
31306;SDS011;17935;51.120;13.132;2023-07-31T06:14:23;11.05;;;4.53;;
31306;SDS011;17935;51.120;13.132;2023-07-31T06:16:49;12.05;;;3.30;;
31306;SDS011;17935;51.120;13.132;2023-07-31T06:19:15;6.55;;;3.17;;
31306;SDS011;17935;51.120;13.132;2023-07-31T06:21:41;6.63;;;2.72;;
31306;SDS011;17935;51.120;13.132;2023-07-31T06:24:08;8.38;;;3.10;;
31306;SDS011;17935;51.120;13.132;2023-07-31T06:26:34;6.57;;;2.83;;
31306;SDS011;17935;51.120;13.132;2023-07-31T06:29:00;9.57;;;3.20;;
31306;SDS011;17935;51.120;13.132;2023-07-31T06:31:26;11.75;;;3.30;;
31306;SDS011;17935;51.120;13.132;2023-07-31T06:33:53;14.35;;;3.22;;
31306;SDS011;17935;51.120;13.132;2023-07-31T06:36:19;7.80;;;2.72;;
31306;SDS011;17935;51.120;13.132;2023-07-31T06:38:45;8.13;;;2.55;;
31306;SDS011;17935;51.120;13.132;2023-07-31T06:41:11;9.77;;;3.08;;
31306;SDS011;17935;51.120;13.132;2023-07-31T06:43:37;6.65;;;3.25;;
31306;SDS011;17935;51.120;13.132;2023-07-31T06:46:06;6.93;;;3.08;;
31306;SDS011;17935;51.120;13.132;2023-07-31T06:48:33;11.57;;;3.05;;
31306;SDS011;17935;51.120;13.132;2023-07-31T06:51:00;5.72;;;2.70;;
31306;SDS011;17935;51.120;13.132;2023-07-31T06:53:26;7.00;;;2.70;;
31306;SDS011;17935;51.120;13.132;2023-07-31T06:55:52;9.43;;;2.78;;
31306;SDS011;17935;51.120;13.132;2023-07-31T06:58:18;4.18;;;2.30;;
31306;SDS011;17935;51.120;13.132;2023-07-31T07:00:44;8.52;;;2.65;;
31306;SDS011;17935;51.120;13.132;2023-07-31T07:03:10;4.38;;;2.22;;
31306;SDS011;17935;51.120;13.132;2023-07-31T07:05:36;7.97;;;2.67;;
31306;SDS011;17935;51.120;13.132;2023-07-31T07:08:02;6.82;;;2.53;;
31306;SDS011;17935;51.120;13.132;2023-07-31T07:10:28;4.50;;;1.92;;
31306;SDS011;17935;51.120;13.132;2023-07-31T07:12:54;12.10;;;2.13;;
31306;SDS011;17935;51.120;13.132;2023-07-31T07:15:20;6.95;;;2.38;;
31306;SDS011;17935;51.120;13.132;2023-07-31T07:17:46;5.45;;;2.20;;
31306;SDS011;17935;51.120;13.132;2023-07-31T07:20:12;6.30;;;2.42;;
31306;SDS011;17935;51.120;13.132;2023-07-31T07:22:38;7.38;;;2.63;;
31306;SDS011;17935;51.120;13.132;2023-07-31T07:25:04;6.85;;;2.78;;
31306;SDS011;17935;51.120;13.132;2023-07-31T07:27:32;4.25;;;2.05;;
31306;SDS011;17935;51.120;13.132;2023-07-31T07:29:58;4.00;;;1.70;;
31306;SDS011;17935;51.120;13.132;2023-07-31T07:32:24;8.98;;;2.45;;
31306;SDS011;17935;51.120;13.132;2023-07-31T07:34:50;13.75;;;2.75;;
31306;SDS011;17935;51.120;13.132;2023-07-31T07:37:16;9.63;;;2.10;;
31306;SDS011;17935;51.120;13.132;2023-07-31T07:39:42;4.63;;;2.10;;
31306;SDS011;17935;51.120;13.132;2023-07-31T07:42:08;5.93;;;2.55;;
31306;SDS011;17935;51.120;13.132;2023-07-31T07:44:34;6.07;;;2.78;;
31306;SDS011;17935;51.120;13.132;2023-07-31T07:47:00;5.00;;;2.35;;
31306;SDS011;17935;51.120;13.132;2023-07-31T07:49:26;8.32;;;3.10;;
31306;SDS011;17935;51.120;13.132;2023-07-31T07:51:52;8.68;;;2.70;;
31306;SDS011;17935;51.120;13.132;2023-07-31T07:54:18;8.15;;;2.75;;
31306;SDS011;17935;51.120;13.132;2023-07-31T07:56:46;8.15;;;2.47;;
31306;SDS011;17935;51.120;13.132;2023-07-31T07:59:12;4.65;;;2.47;;
31306;SDS011;17935;51.120;13.132;2023-07-31T08:01:38;6.03;;;2.33;;
31306;SDS011;17935;51.120;13.132;2023-07-31T08:04:04;7.32;;;2.40;;
31306;SDS011;17935;51.120;13.132;2023-07-31T08:06:30;10.68;;;2.38;;
31306;SDS011;17935;51.120;13.132;2023-07-31T08:08:56;6.25;;;2.15;;
31306;SDS011;17935;51.120;13.132;2023-07-31T08:11:22;7.50;;;3.13;;
31306;SDS011;17935;51.120;13.132;2023-07-31T08:13:48;6.53;;;2.83;;
31306;SDS011;17935;51.120;13.132;2023-07-31T08:16:14;6.65;;;2.42;;
31306;SDS011;17935;51.120;13.132;2023-07-31T08:18:40;6.88;;;2.95;;
31306;SDS011;17935;51.120;13.132;2023-07-31T08:21:07;7.32;;;2.70;;
31306;SDS011;17935;51.120;13.132;2023-07-31T08:23:42;4.63;;;2.38;;
31306;SDS011;17935;51.120;13.132;2023-07-31T08:26:14;5.78;;;2.55;;
31306;SDS011;17935;51.120;13.132;2023-07-31T08:28:40;30.75;;;3.97;;
31306;SDS011;17935;51.120;13.132;2023-07-31T08:31:06;9.45;;;3.08;;
31306;SDS011;17935;51.120;13.132;2023-07-31T08:33:32;5.40;;;2.70;;
31306;SDS011;17935;51.120;13.132;2023-07-31T08:35:58;8.70;;;2.70;;
31306;SDS011;17935;51.120;13.132;2023-07-31T08:38:26;6.10;;;2.90;;
31306;SDS011;17935;51.120;13.132;2023-07-31T08:40:54;8.70;;;2.70;;
31306;SDS011;17935;51.120;13.132;2023-07-31T08:43:20;8.38;;;2.72;;
31306;SDS011;17935;51.120;13.132;2023-07-31T08:45:47;6.15;;;2.58;;
31306;SDS011;17935;51.120;13.132;2023-07-31T08:48:15;5.65;;;2.90;;
31306;SDS011;17935;51.120;13.132;2023-07-31T08:50:41;6.05;;;3.15;;
31306;SDS011;17935;51.120;13.132;2023-07-31T08:53:07;6.03;;;2.83;;
31306;SDS011;17935;51.120;13.132;2023-07-31T08:55:37;4.82;;;2.72;;
31306;SDS011;17935;51.120;13.132;2023-07-31T08:58:06;7.35;;;3.53;;
31306;SDS011;17935;51.120;13.132;2023-07-31T09:00:35;4.38;;;2.40;;
31306;SDS011;17935;51.120;13.132;2023-07-31T09:03:03;4.20;;;2.58;;
31306;SDS011;17935;51.120;13.132;2023-07-31T09:05:33;8.10;;;2.72;;
31306;SDS011;17935;51.120;13.132;2023-07-31T09:10:58;5.70;;;2.90;;
31306;SDS011;17935;51.120;13.132;2023-07-31T09:13:24;4.45;;;2.28;;
31306;SDS011;17935;51.120;13.132;2023-07-31T09:15:50;7.95;;;2.80;;
31306;SDS011;17935;51.120;13.132;2023-07-31T09:21:02;5.75;;;2.67;;
31306;SDS011;17935;51.120;13.132;2023-07-31T09:23:39;7.28;;;3.25;;
31306;SDS011;17935;51.120;13.132;2023-07-31T09:26:06;6.47;;;3.15;;
31306;SDS011;17935;51.120;13.132;2023-07-31T09:36:19;5.75;;;2.63;;
31306;SDS011;17935;51.120;13.132;2023-07-31T09:38:45;7.18;;;2.55;;
31306;SDS011;17935;51.120;13.132;2023-07-31T09:41:11;5.65;;;2.80;;
31306;SDS011;17935;51.120;13.132;2023-07-31T09:43:38;7.70;;;2.47;;
31306;SDS011;17935;51.120;13.132;2023-07-31T09:46:04;5.53;;;2.63;;
31306;SDS011;17935;51.120;13.132;2023-07-31T09:48:38;10.07;;;2.30;;
31306;SDS011;17935;51.120;13.132;2023-07-31T09:51:04;9.50;;;3.10;;
31306;SDS011;17935;51.120;13.132;2023-07-31T09:53:30;8.27;;;2.65;;
31306;SDS011;17935;51.120;13.132;2023-07-31T09:56:00;10.65;;;3.10;;
31306;SDS011;17935;51.120;13.132;2023-07-31T09:58:27;7.28;;;2.80;;
31306;SDS011;17935;51.120;13.132;2023-07-31T10:00:54;10.73;;;2.60;;
31306;SDS011;17935;51.120;13.132;2023-07-31T10:03:21;15.40;;;3.47;;
31306;SDS011;17935;51.120;13.132;2023-07-31T10:05:51;6.35;;;2.83;;
31306;SDS011;17935;51.120;13.132;2023-07-31T10:08:20;6.30;;;2.72;;
31306;SDS011;17935;51.120;13.132;2023-07-31T10:10:47;5.82;;;3.05;;
31306;SDS011;17935;51.120;13.132;2023-07-31T10:13:13;5.20;;;2.92;;
31306;SDS011;17935;51.120;13.132;2023-07-31T10:15:39;6.88;;;2.88;;
31306;SDS011;17935;51.120;13.132;2023-07-31T10:18:07;4.45;;;2.60;;
31306;SDS011;17935;51.120;13.132;2023-07-31T10:20:34;4.13;;;2.60;;
31306;SDS011;17935;51.120;13.132;2023-07-31T10:23:00;6.38;;;2.85;;
31306;SDS011;17935;51.120;13.132;2023-07-31T10:25:26;9.57;;;4.18;;
31306;SDS011;17935;51.120;13.132;2023-07-31T10:27:53;4.75;;;2.10;;
31306;SDS011;17935;51.120;13.132;2023-07-31T10:30:20;5.05;;;2.15;;
31306;SDS011;17935;51.120;13.132;2023-07-31T10:32:47;7.32;;;2.38;;
31306;SDS011;17935;51.120;13.132;2023-07-31T10:35:15;6.95;;;2.25;;
31306;SDS011;17935;51.120;13.132;2023-07-31T10:37:41;5.82;;;2.60;;
31306;SDS011;17935;51.120;13.132;2023-07-31T10:40:19;8.40;;;2.90;;
31306;SDS011;17935;51.120;13.132;2023-07-31T10:42:50;5.35;;;2.55;;
31306;SDS011;17935;51.120;13.132;2023-07-31T10:45:33;7.75;;;2.78;;
31306;SDS011;17935;51.120;13.132;2023-07-31T10:48:05;4.97;;;2.85;;
31306;SDS011;17935;51.120;13.132;2023-07-31T10:50:33;6.05;;;2.92;;
31306;SDS011;17935;51.120;13.132;2023-07-31T10:53:02;6.50;;;2.58;;
31306;SDS011;17935;51.120;13.132;2023-07-31T10:55:32;6.80;;;3.03;;
31306;SDS011;17935;51.120;13.132;2023-07-31T11:00:31;5.85;;;2.60;;
31306;SDS011;17935;51.120;13.132;2023-07-31T11:02:57;5.75;;;2.47;;
31306;SDS011;17935;51.120;13.132;2023-07-31T11:08:12;5.65;;;2.42;;
31306;SDS011;17935;51.120;13.132;2023-07-31T11:10:38;3.92;;;2.30;;
31306;SDS011;17935;51.120;13.132;2023-07-31T11:13:04;7.45;;;2.08;;
31306;SDS011;17935;51.120;13.132;2023-07-31T11:15:31;7.93;;;2.47;;
31306;SDS011;17935;51.120;13.132;2023-07-31T11:17:57;6.82;;;2.50;;
31306;SDS011;17935;51.120;13.132;2023-07-31T11:20:24;7.75;;;2.83;;
31306;SDS011;17935;51.120;13.132;2023-07-31T11:22:49;4.40;;;2.17;;
31306;SDS011;17935;51.120;13.132;2023-07-31T11:25:16;5.03;;;2.53;;
31306;SDS011;17935;51.120;13.132;2023-07-31T11:27:42;7.53;;;3.00;;
31306;SDS011;17935;51.120;13.132;2023-07-31T11:30:08;4.90;;;2.78;;
31306;SDS011;17935;51.120;13.132;2023-07-31T11:32:37;5.20;;;2.28;;
31306;SDS011;17935;51.120;13.132;2023-07-31T11:35:04;7.38;;;2.88;;
31306;SDS011;17935;51.120;13.132;2023-07-31T11:40:08;7.93;;;2.75;;
31306;SDS011;17935;51.120;13.132;2023-07-31T11:42:39;4.00;;;2.15;;
31306;SDS011;17935;51.120;13.132;2023-07-31T11:45:09;6.38;;;2.25;;
31306;SDS011;17935;51.120;13.132;2023-07-31T11:59:26;5.47;;;2.75;;
31306;SDS011;17935;51.120;13.132;2023-07-31T12:01:52;3.70;;;2.33;;
31306;SDS011;17935;51.120;13.132;2023-07-31T12:04:19;4.60;;;2.03;;
31306;SDS011;17935;51.120;13.132;2023-07-31T12:06:47;7.63;;;2.63;;
31306;SDS011;17935;51.120;13.132;2023-07-31T12:09:16;5.88;;;2.88;;
31306;SDS011;17935;51.120;13.132;2023-07-31T12:11:42;4.20;;;2.40;;
31306;SDS011;17935;51.120;13.132;2023-07-31T12:14:19;5.25;;;2.30;;
31306;SDS011;17935;51.120;13.132;2023-07-31T12:16:45;5.82;;;2.53;;
31306;SDS011;17935;51.120;13.132;2023-07-31T12:19:11;5.28;;;2.42;;
31306;SDS011;17935;51.120;13.132;2023-07-31T12:21:37;3.35;;;1.90;;
31306;SDS011;17935;51.120;13.132;2023-07-31T12:24:04;4.28;;;2.50;;
31306;SDS011;17935;51.120;13.132;2023-07-31T12:26:34;4.93;;;2.42;;
31306;SDS011;17935;51.120;13.132;2023-07-31T12:29:00;7.10;;;2.25;;
31306;SDS011;17935;51.120;13.132;2023-07-31T12:31:27;6.57;;;2.63;;
31306;SDS011;17935;51.120;13.132;2023-07-31T12:33:56;5.35;;;2.70;;
31306;SDS011;17935;51.120;13.132;2023-07-31T12:36:23;5.28;;;2.58;;
31306;SDS011;17935;51.120;13.132;2023-07-31T12:38:50;5.85;;;2.17;;
31306;SDS011;17935;51.120;13.132;2023-07-31T12:41:16;3.88;;;2.05;;
31306;SDS011;17935;51.120;13.132;2023-07-31T12:43:43;6.55;;;2.75;;
31306;SDS011;17935;51.120;13.132;2023-07-31T12:46:10;10.50;;;2.67;;
31306;SDS011;17935;51.120;13.132;2023-07-31T12:48:36;8.93;;;3.30;;
31306;SDS011;17935;51.120;13.132;2023-07-31T12:51:03;4.20;;;2.75;;
31306;SDS011;17935;51.120;13.132;2023-07-31T12:53:29;6.25;;;2.72;;
31306;SDS011;17935;51.120;13.132;2023-07-31T12:55:56;3.50;;;2.47;;
31306;SDS011;17935;51.120;13.132;2023-07-31T13:04:37;5.05;;;2.10;;
31306;SDS011;17935;51.120;13.132;2023-07-31T13:07:10;4.18;;;2.55;;
31306;SDS011;17935;51.120;13.132;2023-07-31T13:09:49;3.13;;;2.20;;
31306;SDS011;17935;51.120;13.132;2023-07-31T13:12:15;9.63;;;2.55;;
31306;SDS011;17935;51.120;13.132;2023-07-31T13:14:41;4.18;;;2.13;;
31306;SDS011;17935;51.120;13.132;2023-07-31T13:17:07;3.85;;;2.10;;
31306;SDS011;17935;51.120;13.132;2023-07-31T13:19:33;6.95;;;2.60;;
31306;SDS011;17935;51.120;13.132;2023-07-31T13:21:59;4.88;;;2.65;;
31306;SDS011;17935;51.120;13.132;2023-07-31T13:24:25;4.68;;;2.50;;
31306;SDS011;17935;51.120;13.132;2023-07-31T13:26:51;2.60;;;2.00;;
31306;SDS011;17935;51.120;13.132;2023-07-31T13:29:17;4.05;;;2.42;;
31306;SDS011;17935;51.120;13.132;2023-07-31T13:31:43;6.60;;;2.42;;
31306;SDS011;17935;51.120;13.132;2023-07-31T13:34:09;4.15;;;2.20;;
31306;SDS011;17935;51.120;13.132;2023-07-31T13:36:36;4.45;;;2.63;;
31306;SDS011;17935;51.120;13.132;2023-07-31T13:39:02;3.22;;;2.03;;
31306;SDS011;17935;51.120;13.132;2023-07-31T13:41:28;3.75;;;2.25;;
31306;SDS011;17935;51.120;13.132;2023-07-31T13:43:54;3.33;;;2.35;;
31306;SDS011;17935;51.120;13.132;2023-07-31T13:46:20;3.92;;;2.30;;
31306;SDS011;17935;51.120;13.132;2023-07-31T13:48:46;5.85;;;1.98;;
31306;SDS011;17935;51.120;13.132;2023-07-31T13:51:12;7.18;;;2.53;;
31306;SDS011;17935;51.120;13.132;2023-07-31T13:53:38;4.53;;;2.03;;
31306;SDS011;17935;51.120;13.132;2023-07-31T13:56:04;4.07;;;2.20;;
31306;SDS011;17935;51.120;13.132;2023-07-31T13:58:30;4.80;;;2.28;;
31306;SDS011;17935;51.120;13.132;2023-07-31T14:00:56;3.25;;;2.22;;
31306;SDS011;17935;51.120;13.132;2023-07-31T14:03:22;5.13;;;2.65;;
31306;SDS011;17935;51.120;13.132;2023-07-31T14:05:48;11.13;;;2.67;;
31306;SDS011;17935;51.120;13.132;2023-07-31T14:08:14;4.95;;;2.83;;
31306;SDS011;17935;51.120;13.132;2023-07-31T14:10:40;4.78;;;2.38;;
31306;SDS011;17935;51.120;13.132;2023-07-31T14:13:06;4.85;;;2.33;;
31306;SDS011;17935;51.120;13.132;2023-07-31T14:15:32;5.18;;;2.45;;
31306;SDS011;17935;51.120;13.132;2023-07-31T14:18:00;3.67;;;2.30;;
31306;SDS011;17935;51.120;13.132;2023-07-31T14:23:22;4.07;;;2.10;;
31306;SDS011;17935;51.120;13.132;2023-07-31T14:25:48;5.75;;;2.70;;
31306;SDS011;17935;51.120;13.132;2023-07-31T14:31:24;10.93;;;2.30;;
31306;SDS011;17935;51.120;13.132;2023-07-31T14:40:05;8.10;;;2.53;;
31306;SDS011;17935;51.120;13.132;2023-07-31T14:42:31;9.57;;;2.65;;
31306;SDS011;17935;51.120;13.132;2023-07-31T14:44:57;4.78;;;2.55;;
31306;SDS011;17935;51.120;13.132;2023-07-31T14:47:23;3.33;;;2.20;;
31306;SDS011;17935;51.120;13.132;2023-07-31T14:49:49;6.60;;;1.85;;
31306;SDS011;17935;51.120;13.132;2023-07-31T14:52:15;3.78;;;2.35;;
31306;SDS011;17935;51.120;13.132;2023-07-31T14:54:41;6.57;;;2.50;;
31306;SDS011;17935;51.120;13.132;2023-07-31T14:57:07;10.85;;;2.63;;
31306;SDS011;17935;51.120;13.132;2023-07-31T14:59:33;7.63;;;2.55;;
31306;SDS011;17935;51.120;13.132;2023-07-31T15:01:59;2.70;;;2.33;;
31306;SDS011;17935;51.120;13.132;2023-07-31T15:04:25;4.25;;;2.38;;
31306;SDS011;17935;51.120;13.132;2023-07-31T15:06:52;3.72;;;2.33;;
31306;SDS011;17935;51.120;13.132;2023-07-31T15:09:18;4.05;;;1.90;;
31306;SDS011;17935;51.120;13.132;2023-07-31T15:11:44;5.85;;;2.40;;
31306;SDS011;17935;51.120;13.132;2023-07-31T15:14:10;3.75;;;2.20;;
31306;SDS011;17935;51.120;13.132;2023-07-31T15:16:35;3.38;;;2.47;;
31306;SDS011;17935;51.120;13.132;2023-07-31T15:19:01;6.97;;;2.65;;
31306;SDS011;17935;51.120;13.132;2023-07-31T15:21:27;4.00;;;2.40;;
31306;SDS011;17935;51.120;13.132;2023-07-31T15:23:53;4.07;;;2.40;;
31306;SDS011;17935;51.120;13.132;2023-07-31T15:26:19;6.18;;;2.50;;
31306;SDS011;17935;51.120;13.132;2023-07-31T15:28:55;7.53;;;2.33;;